Time;durP1;ratioP1;P1;durP2;ratioP2;P2;SDS_P1;SDS_P2;PMS_P1;PMS_P2;Temp;Humidity;BMP_temperature;BMP_pressure;BME280_temperature;BME280_humidity;BME280_pressure;Samples;Min_cycle;Max_cycle;Signal;HPM_P1;HPM_P2
2022/03/15 00:01:34;;;;;;;18.77;10.60;;;;;;;-143.84;62.06;45151.91;5051555;28;21016;-71
2022/03/15 00:04:01;;;;;;;24.37;10.97;;;;;;;-143.84;61.47;45174.75;5051528;28;20459;-71
2022/03/15 00:06:28;;;;;;;14.60;10.97;;;;;;;-143.84;61.12;45170.94;5051240;28;21058;-71
2022/03/15 00:08:55;;;;;;;14.47;10.70;;;;;;;-143.84;61.58;45178.56;5051597;28;20441;-71
2022/03/15 00:11:23;;;;;;;13.50;10.30;;;;;;;-143.84;61.38;45197.59;5051245;28;20460;-71
2022/03/15 00:13:50;;;;;;;20.17;10.67;;;;;;;-143.84;61.62;45167.13;5051499;28;20448;-71
2022/03/15 00:16:17;;;;;;;18.20;10.87;;;;;;;-143.84;61.39;45153.81;5051254;28;20515;-71
2022/03/15 00:18:46;;;;;;;16.07;9.10;;;;;;;-143.84;61.41;45174.75;5051689;28;21068;-71
2022/03/15 00:21:13;;;;;;;24.60;10.40;;;;;;;-143.84;61.35;45169.03;5051172;28;20462;-71
2022/03/15 00:23:42;;;;;;;12.43;10.13;;;;;;;-143.84;61.81;45153.81;5050986;28;20437;-71
2022/03/15 00:26:09;;;;;;;13.43;9.20;;;;;;;-143.84;61.26;45170.94;5050929;28;20485;-71
2022/03/15 00:28:37;;;;;;;16.43;11.20;;;;;;;-143.84;61.19;45188.06;5051598;28;20434;-71
2022/03/15 00:31:04;;;;;;;15.40;11.80;;;;;;;-143.84;61.01;45176.66;5050891;28;20449;-71
2022/03/15 00:33:31;;;;;;;19.33;12.50;;;;;;;-143.84;61.32;45172.84;5050718;28;20441;-71
2022/03/15 00:36:00;;;;;;;19.80;11.30;;;;;;;-143.84;60.91;45174.75;5050819;28;20964;-71
2022/03/15 00:38:28;;;;;;;14.70;10.80;;;;;;;-143.84;61.04;45205.22;5050864;28;20508;-71
2022/03/15 00:40:55;;;;;;;18.10;11.20;;;;;;;-143.84;60.98;45169.03;5050942;28;20442;-71
2022/03/15 00:43:23;;;;;;;13.10;10.57;;;;;;;-143.84;61.04;45170.94;5050847;28;20486;-72
2022/03/15 00:45:50;;;;;;;17.13;11.17;;;;;;;-143.84;60.35;45167.13;5050488;28;21010;-72
2022/03/15 00:48:19;;;;;;;16.40;11.27;;;;;;;-143.84;60.41;45199.50;5050820;28;20548;-71
2022/03/15 00:50:46;;;;;;;13.73;9.50;;;;;;;-143.84;60.59;45184.25;5050974;28;21033;-71
2022/03/15 00:53:14;;;;;;;17.93;11.53;;;;;;;-143.84;60.41;45167.13;5050738;28;20484;-72
2022/03/15 00:55:41;;;;;;;13.33;9.53;;;;;;;-143.84;60.83;45191.88;5050462;28;20442;-72
2022/03/15 00:58:10;;;;;;;16.10;10.27;;;;;;;-143.84;60.18;45165.22;5049623;28;20508;-72
2022/03/15 01:00:37;;;;;;;17.93;11.20;;;;;;;-143.84;60.84;45176.66;5050524;28;20438;-72
2022/03/15 01:03:04;;;;;;;16.50;11.13;;;;;;;-143.84;59.97;45167.13;5050719;28;20887;-72
2022/03/15 01:05:32;;;;;;;16.60;11.10;;;;;;;-143.84;59.48;45155.69;5050635;28;20536;-72
2022/03/15 01:07:59;;;;;;;15.73;11.87;;;;;;;-143.84;59.45;45170.94;5050752;28;20438;-71
2022/03/15 01:10:28;;;;;;;16.03;11.37;;;;;;;-143.84;59.20;45167.13;5050228;28;20503;-71
2022/03/15 01:12:55;;;;;;;15.57;11.33;;;;;;;-143.84;58.79;45172.84;5050302;28;20507;-71
2022/03/15 01:15:25;;;;;;;19.33;11.40;;;;;;;-143.84;59.21;45180.47;5050417;28;20434;-71
2022/03/15 01:17:52;;;;;;;15.10;11.50;;;;;;;-143.84;59.05;45170.94;5050178;28;20438;-71
2022/03/15 01:20:20;;;;;;;16.80;11.40;;;;;;;-143.84;58.92;45146.19;5050052;28;20502;-71
2022/03/15 01:22:47;;;;;;;17.63;10.90;;;;;;;-143.84;58.17;45180.47;5050021;28;20507;-71
2022/03/15 01:25:14;;;;;;;15.70;11.20;;;;;;;-143.84;58.04;45186.16;5050142;28;20491;-71
2022/03/15 01:27:43;;;;;;;18.90;11.77;;;;;;;-143.84;57.99;45174.75;5049791;28;21005;-72
2022/03/15 01:30:10;;;;;;;18.70;11.60;;;;;;;-143.84;58.01;45142.38;5049999;28;20519;-72
2022/03/15 01:32:37;;;;;;;16.57;11.73;;;;;;;-143.84;57.48;45161.41;5049697;28;20444;-71
2022/03/15 01:35:06;;;;;;;16.13;11.53;;;;;;;-143.84;57.39;45165.22;5048004;28;20891;-71
2022/03/15 01:37:33;;;;;;;18.17;11.33;;;;;;;-143.84;57.79;45142.38;5042242;28;20462;-71
2022/03/15 01:40:00;;;;;;;16.03;11.80;;;;;;;-143.84;57.62;45180.47;5068028;28;20458;-71
2022/03/15 01:42:27;;;;;;;15.90;11.00;;;;;;;-143.84;57.71;45167.13;5069984;28;21023;-72
2022/03/15 01:44:56;;;;;;;15.50;11.23;;;;;;;-143.84;56.85;45155.69;5070176;28;20445;-72
2022/03/15 01:47:23;;;;;;;17.83;11.70;;;;;;;-143.84;56.36;45161.41;5069645;28;21138;-72
2022/03/15 01:49:50;;;;;;;17.30;11.43;;;;;;;-143.84;56.49;45189.97;5069895;28;20514;-72
2022/03/15 01:52:18;;;;;;;18.97;10.50;;;;;;;-143.84;55.84;45159.50;5070518;28;20506;-72
2022/03/15 01:54:46;;;;;;;15.30;10.43;;;;;;;-143.84;56.17;45159.50;5070576;28;20799;-72
2022/03/15 01:57:14;;;;;;;16.57;10.00;;;;;;;-143.84;55.50;45191.88;5070035;28;20527;-71
2022/03/15 01:59:41;;;;;;;16.50;11.03;;;;;;;-143.84;55.52;45163.31;5069859;28;20449;-72
2022/03/15 02:02:10;;;;;;;16.60;11.03;;;;;;;-143.84;55.32;45170.94;5069717;28;20441;-72
2022/03/15 02:04:37;;;;;;;14.37;10.90;;;;;;;-143.84;55.53;45186.16;5070015;28;20442;-72
2022/03/15 02:07:08;;;;;;;13.93;10.07;;;;;;;-143.84;54.91;45163.31;5069574;28;20481;-72
2022/03/15 02:09:35;;;;;;;17.43;10.80;;;;;;;-143.84;55.53;45176.66;5073474;28;20453;-71
2022/03/15 02:12:03;;;;;;;19.70;11.70;;;;;;;-143.84;55.07;45184.25;5076537;28;20983;-71
2022/03/15 02:14:30;;;;;;;16.83;11.77;;;;;;;-143.84;55.04;45157.59;5076351;28;20435;-71
2022/03/15 02:16:57;;;;;;;16.17;10.60;;;;;;;-143.84;54.91;45159.50;5076712;28;20444;-71
2022/03/15 02:19:27;;;;;;;18.63;10.47;;;;;;;-143.84;55.33;45176.66;5076287;28;20506;-71
2022/03/15 02:21:57;;;;;;;12.70;10.13;;;;;;;-143.84;54.67;45186.16;5076436;28;20443;-71
2022/03/15 02:24:24;;;;;;;15.70;9.93;;;;;;;-143.84;54.88;45178.56;5076373;28;20481;-71
2022/03/15 02:26:52;;;;;;;17.30;10.00;;;;;;;-143.84;54.68;45170.94;5076010;28;20480;-71
2022/03/15 02:29:20;;;;;;;15.40;10.90;;;;;;;-143.84;55.00;45157.59;5076303;28;20518;-71
2022/03/15 02:31:47;;;;;;;18.93;10.67;;;;;;;-143.84;54.86;45151.91;5076317;28;20462;-71
2022/03/15 02:34:14;;;;;;;22.60;12.30;;;;;;;-143.84;55.61;45157.59;5076465;28;21097;-71
2022/03/15 02:36:41;;;;;;;15.97;11.37;;;;;;;-143.84;56.03;45193.78;5076301;28;20432;-71
2022/03/15 02:39:10;;;;;;;18.07;12.97;;;;;;;-143.84;55.97;45178.56;5076095;28;20918;-71
2022/03/15 02:41:37;;;;;;;19.47;12.50;;;;;;;-143.84;56.75;45150.00;5076106;28;20441;-71
2022/03/15 02:44:05;;;;;;;22.13;12.63;;;;;;;-143.84;56.71;45146.19;5076536;28;20508;-72
2022/03/15 02:46:34;;;;;;;15.40;10.80;;;;;;;-143.84;56.57;45172.84;5076252;28;20900;-71
2022/03/15 02:49:02;;;;;;;22.83;11.23;;;;;;;-143.84;56.34;45151.91;5075781;28;20484;-71
2022/03/15 02:51:31;;;;;;;25.00;13.03;;;;;;;-143.84;56.58;45178.56;5075933;28;20451;-71
2022/03/15 02:54:02;;;;;;;17.27;11.00;;;;;;;-143.84;56.65;45167.13;5075586;28;20446;-71
2022/03/15 02:56:33;;;;;;;19.00;11.53;;;;;;;-143.84;56.26;45193.78;5075870;28;20448;-71
2022/03/15 02:59:00;;;;;;;21.10;12.50;;;;;;;-143.84;56.99;45167.13;5075872;28;20544;-71
2022/03/15 03:01:27;;;;;;;18.17;12.03;;;;;;;-143.84;56.66;45186.16;5075873;28;20447;-71
2022/03/15 03:03:54;;;;;;;19.83;12.43;;;;;;;-143.84;56.54;45178.56;5076014;28;20524;-71
2022/03/15 03:06:21;;;;;;;21.77;12.90;;;;;;;-143.84;56.47;45150.00;5075973;28;20501;-71
2022/03/15 03:08:49;;;;;;;18.53;12.17;;;;;;;-143.84;56.95;45186.16;5075705;28;20440;-71
2022/03/15 03:11:16;;;;;;;17.07;12.10;;;;;;;-143.84;56.45;45186.16;5076102;28;20911;-71
2022/03/15 03:13:44;;;;;;;20.43;12.93;;;;;;;-143.84;56.89;45170.94;5076373;28;20421;-71
2022/03/15 03:16:13;;;;;;;18.27;12.20;;;;;;;-143.84;56.34;45169.03;5076001;28;20856;-71
2022/03/15 03:18:40;;;;;;;16.17;12.40;;;;;;;-143.84;56.05;45159.50;5075664;28;21010;-71
2022/03/15 03:21:08;;;;;;;19.27;13.00;;;;;;;-143.84;56.51;45146.19;5072589;28;20485;-70
2022/03/15 03:23:37;;;;;;;18.87;13.07;;;;;;;-143.84;56.14;45188.06;5072097;28;20441;-71
2022/03/15 03:26:05;;;;;;;18.37;12.97;;;;;;;-143.84;56.19;45144.28;5072408;28;20437;-71
2022/03/15 03:28:36;;;;;;;21.47;13.07;;;;;;;-143.84;55.60;45159.50;5072360;28;20852;-71
2022/03/15 03:31:05;;;;;;;26.23;14.27;;;;;;;-143.84;55.61;45159.50;5072077;28;20456;-70
2022/03/15 03:33:33;;;;;;;21.03;14.77;;;;;;;-143.84;55.71;45161.41;5072482;28;20437;-71
2022/03/15 03:36:00;;;;;;;17.00;12.90;;;;;;;-143.84;55.77;45174.75;5072375;28;20534;-71
2022/03/15 03:38:28;;;;;;;18.80;14.13;;;;;;;-143.84;56.28;45155.69;5072039;28;20441;-71
2022/03/15 03:40:56;;;;;;;26.00;16.63;;;;;;;-143.84;55.83;45157.59;5064651;28;20431;-71
2022/03/15 03:43:23;;;;;;;35.23;17.10;;;;;;;-143.84;55.80;45170.94;5072250;28;20558;-71
2022/03/15 03:45:51;;;;;;;32.73;15.83;;;;;;;-143.84;56.11;45189.97;5072266;28;20439;-71
2022/03/15 03:48:20;;;;;;;24.80;14.10;;;;;;;-143.84;56.53;45153.81;5072164;28;20572;-71
2022/03/15 03:50:47;;;;;;;24.03;16.17;;;;;;;-143.84;56.42;45180.47;5072300;28;20429;-71
2022/03/15 03:53:15;;;;;;;24.60;16.80;;;;;;;-143.84;56.18;45172.84;5072426;28;20436;-71
2022/03/15 03:55:42;;;;;;;29.03;18.60;;;;;;;-143.84;56.41;45151.91;5072240;28;20503;-71
2022/03/15 03:58:09;;;;;;;32.10;18.70;;;;;;;-143.84;56.25;45172.84;5072195;28;20510;-71
2022/03/15 04:00:36;;;;;;;29.23;18.73;;;;;;;-143.84;57.02;45178.56;5072315;28;20436;-74
2022/03/15 04:03:03;;;;;;;31.60;18.90;;;;;;;-143.84;57.19;45148.09;5071913;28;20812;-74
2022/03/15 04:05:35;;;;;;;38.13;22.50;;;;;;;-143.84;57.36;45174.75;5071789;28;20436;-74
2022/03/15 04:08:03;;;;;;;37.20;23.57;;;;;;;-143.84;57.18;45157.59;5071878;28;21330;-74
2022/03/15 04:10:31;;;;;;;35.80;24.87;;;;;;;-143.84;56.89;45172.84;5054392;28;20460;-74
2022/03/15 04:12:58;;;;;;;38.97;23.50;;;;;;;-143.84;57.41;45170.94;5032215;28;20454;-74
2022/03/15 04:15:25;;;;;;;34.60;21.83;;;;;;;-143.84;57.31;45174.75;5032640;28;20459;-73
2022/03/15 04:17:52;;;;;;;28.03;18.97;;;;;;;-143.84;57.09;45169.03;5031931;28;20449;-74
2022/03/15 04:20:20;;;;;;;31.30;18.57;;;;;;;-143.84;56.70;45142.38;5031879;28;20510;-74
2022/03/15 04:22:48;;;;;;;29.80;17.13;;;;;;;-143.84;56.20;45174.75;5037072;28;20507;-74
2022/03/15 04:25:16;;;;;;;22.13;15.00;;;;;;;-143.84;56.05;45167.13;5038772;28;20941;-75
2022/03/15 04:27:43;;;;;;;53.80;14.90;;;;;;;-143.84;56.15;45178.56;5040759;28;20473;-74
2022/03/15 04:30:11;;;;;;;19.50;14.20;;;;;;;-143.84;57.28;45167.13;5036995;28;20482;-75
2022/03/15 04:32:38;;;;;;;19.07;13.10;;;;;;;-143.84;57.50;45140.47;5044376;28;20587;-72
2022/03/15 04:35:06;;;;;;;23.50;13.63;;;;;;;-143.84;56.05;45169.03;5048477;28;20529;-72
2022/03/15 04:37:33;;;;;;;19.10;14.20;;;;;;;-143.84;55.97;45172.84;5042291;28;20462;-72
2022/03/15 04:40:02;;;;;;;21.10;14.40;;;;;;;-143.84;56.44;45172.84;5037599;28;20501;-72
2022/03/15 04:42:29;;;;;;;21.90;14.00;;;;;;;-143.84;55.82;45193.78;5037434;28;20493;-72
2022/03/15 04:44:56;;;;;;;19.87;14.50;;;;;;;-143.84;55.32;45172.84;5043652;28;20880;-72
2022/03/15 04:47:23;;;;;;;25.33;16.23;;;;;;;-143.84;54.98;45155.69;5047562;28;20473;-72
2022/03/15 04:49:50;;;;;;;24.90;16.23;;;;;;;-143.84;54.66;45170.94;5041756;28;20457;-72
2022/03/15 04:52:18;;;;;;;25.33;16.00;;;;;;;-143.84;54.63;45201.41;5052227;28;20973;-74
2022/03/15 04:54:45;;;;;;;20.40;13.90;;;;;;;-143.84;54.06;45153.81;5045023;28;20544;-73
2022/03/15 04:57:14;;;;;;;24.20;15.10;;;;;;;-143.84;54.64;45159.50;5045992;28;20789;-74
2022/03/15 04:59:41;;;;;;;23.17;15.27;;;;;;;-143.84;54.02;45161.41;5041832;28;20450;-75
2022/03/15 05:02:09;;;;;;;21.90;14.40;;;;;;;-143.84;54.22;45176.66;5049195;28;20457;-74
2022/03/15 05:04:36;;;;;;;19.30;13.13;;;;;;;-143.84;54.06;45161.41;5050433;28;20423;-74
2022/03/15 05:07:03;;;;;;;18.93;13.37;;;;;;;-143.84;53.68;45150.00;5042152;28;20564;-74
2022/03/15 05:09:30;;;;;;;24.47;17.37;;;;;;;-143.84;53.67;45144.28;5041837;28;20446;-76
2022/03/15 05:11:58;;;;;;;23.87;16.60;;;;;;;-143.84;53.74;45144.28;5050242;28;20438;-75
2022/03/15 05:14:27;;;;;;;22.53;15.63;;;;;;;-143.84;53.24;45161.41;5050311;28;20452;-75
2022/03/15 05:16:54;;;;;;;21.03;14.57;;;;;;;-143.84;51.87;45178.56;5050225;28;20475;-75
2022/03/15 05:19:21;;;;;;;23.50;15.00;;;;;;;-143.84;50.49;45132.84;5049722;28;20503;-75
2022/03/15 05:21:48;;;;;;;31.43;13.70;;;;;;;-143.84;48.91;45167.13;5050375;28;20440;-76
2022/03/15 05:24:16;;;;;;;21.23;14.47;;;;;;;-143.84;48.11;45132.84;5049841;28;20450;-75
2022/03/15 05:26:43;;;;;;;17.50;13.67;;;;;;;-143.84;46.37;45136.66;5049599;28;20442;-76
2022/03/15 05:29:10;;;;;;;20.20;12.67;;;;;;;-143.84;45.35;45125.22;5048844;28;20503;-76
2022/03/15 05:31:39;;;;;;;19.70;14.67;;;;;;;-143.84;44.37;45150.00;5048315;28;20948;-75
2022/03/15 05:34:06;;;;;;;19.47;13.77;;;;;;;-143.84;43.76;45142.38;5048358;28;20441;-76
2022/03/15 05:36:33;;;;;;;23.10;15.00;;;;;;;-143.84;43.17;45130.94;5048930;28;20568;-76
2022/03/15 05:39:00;;;;;;;18.87;12.87;;;;;;;-143.84;42.92;45130.94;5049040;28;20438;-76
2022/03/15 05:41:27;;;;;;;19.50;12.87;;;;;;;-143.84;42.64;45138.56;5048079;28;21330;-76
2022/03/15 05:43:55;;;;;;;27.40;14.97;;;;;;;-143.84;41.04;45125.22;5047370;28;20450;-76
2022/03/15 05:46:22;;;;;;;18.70;13.10;;;;;;;-143.84;41.45;45106.19;5048896;28;20472;-76
2022/03/15 05:48:51;;;;;;;20.83;13.57;;;;;;;-143.84;40.69;45142.38;5049009;28;20509;-76
2022/03/15 05:51:18;;;;;;;18.63;12.63;;;;;;;-143.84;39.80;45138.56;5049504;28;20509;-76
2022/03/15 05:53:45;;;;;;;16.90;12.10;;;;;;;-143.84;39.41;45127.13;5049802;28;20500;-76
2022/03/15 05:56:13;;;;;;;14.77;12.30;;;;;;;-143.84;38.94;45129.03;5049747;28;20443;-76
2022/03/15 05:58:40;;;;;;;16.43;13.30;;;;;;;-143.84;39.21;45111.91;5049916;28;20447;-76
2022/03/15 06:01:07;;;;;;;20.17;12.17;;;;;;;-143.84;38.06;45117.63;5049508;28;20437;-76
2022/03/15 06:03:34;;;;;;;17.40;13.10;;;;;;;-143.84;37.55;45092.88;5049192;28;21154;-76
2022/03/15 06:06:03;;;;;;;16.63;12.17;;;;;;;-143.84;37.34;45098.56;5049160;28;20960;-75
2022/03/15 06:08:30;;;;;;;17.43;13.30;;;;;;;-143.84;37.35;45077.63;5049761;28;20499;-75
2022/03/15 06:11:00;;;;;;;16.93;12.47;;;;;;;-143.84;36.57;45092.88;5049136;28;20449;-76
2022/03/15 06:13:27;;;;;;;19.27;11.60;;;;;;;-143.84;36.35;45094.78;5049762;28;20888;-75
2022/03/15 06:15:54;;;;;;;14.30;11.47;;;;;;;-143.84;35.83;45090.97;5049703;28;20499;-75
2022/03/15 06:18:21;;;;;;;15.90;12.63;;;;;;;-143.84;35.11;45123.34;5049563;28;20457;-75
2022/03/15 06:20:49;;;;;;;16.73;12.30;;;;;;;-143.84;35.20;45089.06;5049409;28;20462;-75
2022/03/15 06:23:23;;;;;;;15.10;12.13;;;;;;;-143.84;34.71;45110.00;5049354;28;20450;-75
2022/03/15 06:25:51;;;;;;;19.20;12.50;;;;;;;-143.84;34.65;45094.78;5049539;28;20503;-75
2022/03/15 06:28:18;;;;;;;19.23;12.93;;;;;;;-143.84;34.25;45073.81;5049757;28;20485;-76
2022/03/15 06:30:45;;;;;;;20.40;12.50;;;;;;;-143.84;34.05;45081.44;5049270;28;20433;-75
2022/03/15 06:33:12;;;;;;;16.90;12.87;;;;;;;-143.84;34.04;45085.25;5049362;28;20965;-75
2022/03/15 06:35:42;;;;;;;19.17;13.40;;;;;;;-143.84;33.35;45089.06;5049276;28;20447;-75
2022/03/15 06:38:10;;;;;;;18.00;12.50;;;;;;;-143.84;33.71;45066.22;5049300;28;20453;-75
2022/03/15 06:40:41;;;;;;;21.93;12.13;;;;;;;-143.84;34.17;45087.16;5049054;28;20441;-75
2022/03/15 06:43:12;;;;;;;32.00;16.17;;;;;;;-143.84;33.94;45081.44;5049372;28;20531;-76
2022/03/15 06:45:41;;;;;;;23.37;14.93;;;;;;;-143.84;34.52;45073.81;5049210;28;20535;-75
2022/03/15 06:48:09;;;;;;;27.33;14.00;;;;;;;-143.84;34.20;45092.88;5048749;28;20911;-75
2022/03/15 06:50:36;;;;;;;24.40;14.47;;;;;;;-143.84;34.30;45087.16;5048789;28;20501;-75
2022/03/15 06:53:04;;;;;;;24.57;15.50;;;;;;;-143.84;34.59;45096.66;5049198;28;20495;-75
2022/03/15 06:55:31;;;;;;;23.40;16.73;;;;;;;-143.84;35.03;45096.66;5049332;28;20828;-75
2022/03/15 06:57:59;;;;;;;24.60;18.10;;;;;;;-143.84;35.14;45102.38;5053202;28;20511;-75
2022/03/15 07:00:27;;;;;;;21.70;16.40;;;;;;;-143.84;35.70;45113.81;5052761;28;20943;-76
2022/03/15 07:02:54;;;;;;;22.87;15.90;;;;;;;-143.84;35.54;45094.78;5053044;28;20927;-76
2022/03/15 07:05:21;;;;;;;19.17;14.53;;;;;;;-143.84;35.05;45115.72;5053016;28;20507;-75
2022/03/15 07:07:48;;;;;;;20.30;14.53;;;;;;;-143.84;35.25;45102.38;5053028;28;20472;-75
2022/03/15 07:10:17;;;;;;;26.20;14.27;;;;;;;-143.84;35.43;45071.91;5052716;28;20441;-75
2022/03/15 07:12:45;;;;;;;24.67;13.37;;;;;;;-143.84;35.19;45089.06;5052949;28;20449;-76
2022/03/15 07:15:14;;;;;;;24.57;15.50;;;;;;;-143.84;35.48;45071.91;5053658;28;20976;-77
2022/03/15 07:17:51;;;;;;;22.10;15.87;;;;;;;-143.84;34.77;45079.53;5053291;28;20450;-76
2022/03/15 07:20:19;;;;;;;19.07;15.17;;;;;;;-143.84;35.13;45098.56;5052360;28;20521;-76
2022/03/15 07:22:47;;;;;;;22.87;15.00;;;;;;;-143.84;35.30;45092.88;5052722;28;20788;-75
2022/03/15 07:25:15;;;;;;;22.13;15.10;;;;;;;-143.84;34.76;45100.47;5052747;28;20458;-76
2022/03/15 07:27:42;;;;;;;26.30;15.90;;;;;;;-143.84;34.92;45064.31;5052761;28;20473;-76
2022/03/15 07:30:10;;;;;;;17.90;13.30;;;;;;;-143.84;35.00;45106.19;5052908;28;20512;-76
2022/03/15 07:32:39;;;;;;;20.13;14.00;;;;;;;-143.84;35.02;45079.53;5052415;28;20450;-76
2022/03/15 07:35:07;;;;;;;23.60;14.93;;;;;;;-143.84;34.57;45052.88;5052924;28;20451;-76
2022/03/15 07:37:34;;;;;;;18.83;15.70;;;;;;;-143.84;34.31;45085.25;5052762;28;20442;-76
2022/03/15 07:40:01;;;;;;;23.73;15.10;;;;;;;-143.84;34.75;45087.16;5052448;28;20446;-76
2022/03/15 07:42:28;;;;;;;20.37;15.90;;;;;;;-143.84;34.36;45068.13;5052471;28;21247;-76
2022/03/15 07:44:55;;;;;;;29.20;14.70;;;;;;;-143.84;34.20;45092.88;5052561;28;20530;-76
2022/03/15 07:47:22;;;;;;;25.90;15.80;;;;;;;-143.84;34.17;45087.16;5052529;28;20447;-76
2022/03/15 07:49:51;;;;;;;25.20;15.07;;;;;;;-143.84;34.14;45094.78;5052773;28;20527;-76
2022/03/15 07:52:20;;;;;;;20.50;15.77;;;;;;;-143.84;34.65;45077.63;5052208;28;21034;-75
2022/03/15 07:54:47;;;;;;;22.40;15.47;;;;;;;-143.84;34.51;45083.34;5051910;28;20499;-76
2022/03/15 07:57:14;;;;;;;21.53;15.23;;;;;;;-143.84;34.64;45075.72;5052172;28;21144;-75
2022/03/15 07:59:42;;;;;;;21.00;16.53;;;;;;;-143.84;34.95;45077.63;5051887;28;20442;-76
2022/03/15 08:02:10;;;;;;;30.67;16.57;;;;;;;-143.84;34.75;45073.81;5052118;28;20495;-76
2022/03/15 08:04:37;;;;;;;24.93;16.87;;;;;;;-143.84;34.99;45081.44;5052086;28;20444;-76
2022/03/15 08:07:06;;;;;;;26.90;17.67;;;;;;;-143.84;34.54;45062.41;5051827;28;20436;-76
2022/03/15 08:09:33;;;;;;;27.57;19.07;;;;;;;-143.84;35.07;45071.91;5051834;28;20470;-76
2022/03/15 08:12:00;;;;;;;33.53;19.60;;;;;;;-143.84;35.05;45083.34;5052022;28;20432;-76
2022/03/15 08:14:27;;;;;;;33.20;18.70;;;;;;;-143.84;35.03;45071.91;5051851;28;20939;-76
2022/03/15 08:16:54;;;;;;;23.17;17.10;;;;;;;-143.84;35.44;45077.63;5051740;28;20446;-76
2022/03/15 08:19:21;;;;;;;29.37;17.87;;;;;;;-143.84;34.82;45071.91;5051722;28;20446;-77
2022/03/15 08:21:49;;;;;;;29.73;18.07;;;;;;;-143.84;34.64;45079.53;5051517;28;20449;-77
2022/03/15 08:24:19;;;;;;;24.20;17.50;;;;;;;-143.84;34.45;45077.63;5051326;28;20505;-77
2022/03/15 08:26:46;;;;;;;24.63;19.00;;;;;;;-143.84;34.63;45066.22;5050280;28;20437;-74
2022/03/15 08:29:13;;;;;;;43.93;21.97;;;;;;;-143.84;34.59;45087.16;5050189;28;21287;-74
2022/03/15 08:31:40;;;;;;;30.53;20.07;;;;;;;-143.84;34.32;45077.63;5050106;28;20525;-74
2022/03/15 08:34:07;;;;;;;39.50;21.53;;;;;;;-143.84;34.06;45087.16;5049992;28;20445;-74
2022/03/15 08:36:36;;;;;;;40.40;21.90;;;;;;;-143.84;34.55;45068.13;5050421;28;20460;-74
2022/03/15 08:39:04;;;;;;;39.83;18.30;;;;;;;-143.84;33.97;45087.16;5050188;28;20445;-74
2022/03/15 08:41:33;;;;;;;33.70;18.60;;;;;;;-143.84;34.22;45085.25;5050022;28;20452;-74
2022/03/15 08:44:00;;;;;;;33.43;19.13;;;;;;;-143.84;33.91;45079.53;5050041;28;20453;-74
2022/03/15 08:46:27;;;;;;;29.57;19.00;;;;;;;-143.84;33.38;45071.91;5049883;28;20500;-74
2022/03/15 08:48:55;;;;;;;25.30;18.50;;;;;;;-143.84;33.60;45075.72;5049695;28;20521;-74
2022/03/15 08:51:22;;;;;;;23.70;17.73;;;;;;;-143.84;33.67;45085.25;5049850;28;20445;-74
2022/03/15 08:53:50;;;;;;;26.07;17.53;;;;;;;-143.84;33.38;45056.69;5050057;28;20956;-74
2022/03/15 08:56:17;;;;;;;22.17;17.20;;;;;;;-143.84;34.03;45064.31;5049500;28;20445;-74
2022/03/15 08:58:45;;;;;;;25.20;16.97;;;;;;;-143.84;33.82;45049.06;5049611;28;20511;-74
2022/03/15 09:01:12;;;;;;;26.30;16.93;;;;;;;-143.84;34.16;45045.25;5050077;28;20440;-74
2022/03/15 09:03:39;;;;;;;23.53;15.40;;;;;;;-143.84;33.27;45079.53;5049833;28;20526;-74
2022/03/15 09:06:07;;;;;;;34.17;17.73;;;;;;;-143.84;33.59;45062.41;5049854;28;20452;-74
2022/03/15 09:08:34;;;;;;;26.63;18.37;;;;;;;-143.84;34.36;45054.78;5051274;28;21170;-79
2022/03/15 09:11:03;;;;;;;31.73;16.90;;;;;;;-143.84;33.85;45073.81;5051914;28;20433;-80
2022/03/15 09:13:32;;;;;;;33.23;18.00;;;;;;;-143.84;33.39;45045.25;5050640;28;20452;-79
2022/03/15 09:16:01;;;;;;;28.90;19.80;;;;;;;-143.84;33.42;45045.25;5052001;28;20467;-80
2022/03/15 09:18:28;;;;;;;22.67;16.13;;;;;;;-143.84;32.70;45083.34;5051613;28;20943;-80
2022/03/15 09:20:55;;;;;;;21.50;15.10;;;;;;;-143.84;33.05;45054.78;5043848;28;20441;-80
2022/03/15 09:23:23;;;;;;;31.83;19.57;;;;;;;-143.84;33.30;45052.88;5050703;28;20439;-80
2022/03/15 09:25:50;;;;;;;23.50;18.33;;;;;;;-143.84;32.99;45047.16;5051395;28;20438;-79
2022/03/15 09:28:18;;;;;;;28.30;18.63;;;;;;;-143.84;32.92;45035.75;5051558;28;20563;-79
2022/03/15 09:30:45;;;;;;;30.60;17.70;;;;;;;-143.84;33.18;45035.75;5051189;28;20442;-80
2022/03/15 09:33:14;;;;;;;19.57;15.53;;;;;;;-143.84;32.69;45049.06;5050873;28;20493;-79
2022/03/15 09:35:43;;;;;;;18.50;13.23;;;;;;;-143.84;32.21;45041.44;5050017;28;20530;-80
2022/03/15 09:38:10;;;;;;;16.07;12.07;;;;;;;-143.84;32.54;45064.31;5050174;28;20448;-80
2022/03/15 09:40:37;;;;;;;16.40;12.97;;;;;;;-143.84;31.91;45043.34;5050372;28;20484;-79
2022/03/15 09:43:06;;;;;;;15.83;11.77;;;;;;;-143.84;31.67;45052.88;5050128;28;20440;-79
2022/03/15 09:45:36;;;;;;;15.87;11.50;;;;;;;-143.84;30.96;45083.34;5050035;28;20440;-79
2022/03/15 09:48:06;;;;;;;15.10;11.70;;;;;;;-143.84;31.23;45045.25;5049605;28;20496;-79
2022/03/15 09:50:36;;;;;;;15.80;11.70;;;;;;;-143.84;30.95;45018.59;5050022;28;20512;-80
2022/03/15 09:53:03;;;;;;;19.60;11.33;;;;;;;-143.84;29.34;45026.22;5050540;28;21312;-80
2022/03/15 09:55:30;;;;;;;20.07;13.70;;;;;;;-143.84;29.35;45014.78;5049671;28;20448;-80
2022/03/15 09:57:57;;;;;;;15.80;11.60;;;;;;;-143.84;29.39;45024.31;5047795;28;20436;-79
2022/03/15 10:00:25;;;;;;;14.67;11.73;;;;;;;-143.84;30.00;45030.03;5047976;28;20453;-79
2022/03/15 10:02:53;;;;;;;20.23;11.77;;;;;;;-143.84;29.98;45047.16;5050678;28;20437;-79
2022/03/15 10:05:20;;;;;;;15.63;11.33;;;;;;;-143.84;29.37;45033.84;5050500;28;20442;-79
2022/03/15 10:07:48;;;;;;;19.70;12.53;;;;;;;-143.84;29.05;45024.31;5051094;28;20449;-79
2022/03/15 10:10:17;;;;;;;25.00;12.17;;;;;;;-143.84;29.58;45047.16;5050724;28;21211;-79
2022/03/15 10:12:44;;;;;;;16.40;11.60;;;;;;;-143.84;29.68;45016.69;5050809;28;20500;-79
2022/03/15 10:15:14;;;;;;;20.10;12.37;;;;;;;-143.84;28.65;45026.22;5051229;28;20433;-79
2022/03/15 10:17:48;;;;;;;15.50;12.00;;;;;;;-143.84;29.63;45045.25;5050623;28;20525;-79
2022/03/15 10:20:18;;;;;;;19.73;12.97;;;;;;;-143.84;29.57;45043.34;5050877;28;20443;-79
2022/03/15 10:22:58;;;;;;;21.33;13.03;;;;;;;-143.84;29.87;45056.69;5050590;28;20447;-79
2022/03/15 10:25:27;;;;;;;20.50;12.20;;;;;;;-143.84;29.48;45022.41;5050265;28;20444;-79
2022/03/15 10:27:56;;;;;;;15.80;12.60;;;;;;;-143.84;29.56;45045.25;5050250;28;21118;-79
2022/03/15 10:30:25;;;;;;;18.57;11.97;;;;;;;-143.84;28.64;45033.84;5051924;28;20463;-80
2022/03/15 10:32:53;;;;;;;18.70;13.00;;;;;;;-143.84;29.47;45037.66;5055076;28;20869;-79
2022/03/15 10:35:21;;;;;;;19.80;13.73;;;;;;;-143.84;29.78;45033.84;5054536;28;20781;-79
2022/03/15 10:37:49;;;;;;;20.63;13.40;;;;;;;-143.84;30.02;45039.53;5054214;28;20447;-80
2022/03/15 10:40:20;;;;;;;19.03;10.90;;;;;;;-143.84;30.20;45033.84;5054497;28;20450;-79
2022/03/15 10:42:48;;;;;;;17.90;11.63;;;;;;;-143.84;30.04;45049.06;5054633;28;20511;-79
2022/03/15 10:45:18;;;;;;;13.67;11.00;;;;;;;-143.84;29.46;45047.16;5054516;28;20461;-79
2022/03/15 10:47:50;;;;;;;18.07;12.70;;;;;;;-143.84;30.50;45045.25;5053960;28;20485;-79
2022/03/15 10:50:18;;;;;;;18.50;12.40;;;;;;;-143.84;30.72;45094.78;5054194;28;20528;-79
2022/03/15 10:52:46;;;;;;;19.33;10.90;;;;;;;-143.84;29.79;45024.31;5054368;28;20445;-79
2022/03/15 10:55:16;;;;;;;15.90;12.00;;;;;;;-143.84;29.26;45031.94;5054507;28;20799;-79
2022/03/15 10:58:05;;;;;;;18.40;12.67;;;;;;;-143.84;29.39;45031.94;5054256;28;20508;-80
2022/03/15 11:00:35;;;;;;;12.93;10.83;;;;;;;-143.84;29.70;45052.88;5054112;28;20454;-80
2022/03/15 11:03:06;;;;;;;15.60;12.23;;;;;;;-143.84;29.94;45070.00;5054277;28;20530;-80
2022/03/15 11:05:35;;;;;;;20.97;12.60;;;;;;;-143.84;29.64;45031.94;5054041;28;20501;-80